createdAt,value
2022-10-15T00:02:35.854Z,20.33
2022-10-15T00:05:39.204Z,21.83
2022-10-15T00:08:42.254Z,21.35
2022-10-15T00:11:44.539Z,20.80
2022-10-15T00:14:46.832Z,21.73
2022-10-15T00:17:49.193Z,20.30
2022-10-15T00:20:51.514Z,20.92
2022-10-15T00:23:53.831Z,19.85
2022-10-15T00:26:56.105Z,19.40
2022-10-15T00:30:00.498Z,19.03
2022-10-15T00:33:02.848Z,18.58
2022-10-15T00:36:15.004Z,18.98
2022-10-15T00:39:17.676Z,18.02
2022-10-15T00:42:20.167Z,19.85
2022-10-15T00:45:22.761Z,20.30
2022-10-15T00:48:25.178Z,19.85
2022-10-15T00:51:31.880Z,19.77
2022-10-15T00:54:37.741Z,20.08
2022-10-15T00:57:40.483Z,19.90
2022-10-15T01:00:44.381Z,19.27
2022-10-15T01:03:46.801Z,20.38
2022-10-15T01:06:49.078Z,21.05
2022-10-15T01:09:51.489Z,21.00
2022-10-15T01:13:13.576Z,21.13
2022-10-15T01:16:24.310Z,19.53
2022-10-15T01:19:57.155Z,22.05
2022-10-15T01:23:25.136Z,21.67
2022-10-15T01:26:58.162Z,21.50
2022-10-15T01:30:19.909Z,19.90
2022-10-15T01:33:43.010Z,20.30
2022-10-15T01:37:13.046Z,20.15
2022-10-15T01:40:22.416Z,21.08
2022-10-15T01:43:36.037Z,18.83
2022-10-15T01:47:05.729Z,19.17
2022-10-15T01:50:08.813Z,19.70
2022-10-15T01:53:12.106Z,18.67
2022-10-15T01:56:18.663Z,18.73
2022-10-15T01:59:27.841Z,17.55
2022-10-15T02:02:30.126Z,19.88
2022-10-15T02:05:36.118Z,17.23
2022-10-15T02:08:50.004Z,19.23
2022-10-15T02:12:31.345Z,18.73
2022-10-15T02:15:40.219Z,19.55
2022-10-15T02:18:51.043Z,19.88
2022-10-15T02:22:09.062Z,19.33
2022-10-15T02:25:16.017Z,19.30
2022-10-15T02:28:22.202Z,19.05
2022-10-15T02:31:26.837Z,18.52
2022-10-15T02:34:31.019Z,20.35
2022-10-15T02:37:35.152Z,18.70
2022-10-15T02:40:37.740Z,18.88
2022-10-15T02:43:41.317Z,18.58
2022-10-15T02:46:43.651Z,18.23
2022-10-15T02:49:47.312Z,19.05
2022-10-15T02:52:49.702Z,17.70
2022-10-15T02:55:54.732Z,18.98
2022-10-15T02:58:57.761Z,17.95
2022-10-15T03:02:00.584Z,18.17
2022-10-15T03:05:04.131Z,17.02
2022-10-15T03:08:06.460Z,18.87
2022-10-15T03:11:09.431Z,18.25
2022-10-15T03:14:12.712Z,19.10
2022-10-15T03:17:15.353Z,18.48
2022-10-15T03:20:18.351Z,18.77
2022-10-15T03:23:20.828Z,18.17
2022-10-15T03:26:23.345Z,18.30
2022-10-15T03:29:25.967Z,19.35
2022-10-15T03:32:36.263Z,18.58
2022-10-15T03:35:40.980Z,19.05
2022-10-15T03:38:44.289Z,17.87
2022-10-15T03:41:49.355Z,18.08
2022-10-15T03:44:58.329Z,19.27
2022-10-15T03:48:00.819Z,18.10
2022-10-15T03:51:07.034Z,17.52
2022-10-15T03:54:09.655Z,18.60
2022-10-15T03:57:19.641Z,18.92
2022-10-15T04:00:28.452Z,17.90
2022-10-15T04:03:34.595Z,18.55
2022-10-15T04:06:37.078Z,18.42
2022-10-15T04:09:43.386Z,16.40
2022-10-15T04:12:58.322Z,18.08
2022-10-15T04:16:04.837Z,16.92
2022-10-15T04:19:10.196Z,18.95
2022-10-15T04:22:14.394Z,17.00
2022-10-15T04:25:24.320Z,17.23
2022-10-15T04:28:27.743Z,17.25
2022-10-15T04:31:30.037Z,17.85
2022-10-15T04:34:33.519Z,16.92
2022-10-15T04:37:36.311Z,19.60
2022-10-15T04:40:39.400Z,16.90
2022-10-15T04:43:41.891Z,16.65
2022-10-15T04:46:46.096Z,16.63
2022-10-15T04:50:02.651Z,16.70
2022-10-15T04:53:23.679Z,17.58
2022-10-15T04:56:28.602Z,17.23
2022-10-15T04:59:31.302Z,17.00
2022-10-15T05:02:53.534Z,17.98
2022-10-15T05:06:11.058Z,15.75
2022-10-15T05:09:14.462Z,16.02
2022-10-15T05:12:21.792Z,17.13
2022-10-15T05:15:26.140Z,16.30
2022-10-15T05:18:28.948Z,16.13
2022-10-15T05:21:32.430Z,17.23
2022-10-15T05:24:38.181Z,16.55
2022-10-15T05:27:48.204Z,16.60
2022-10-15T05:30:50.573Z,16.60
2022-10-15T05:33:53.971Z,17.30
2022-10-15T05:37:06.756Z,20.85
2022-10-15T05:40:09.445Z,22.88
2022-10-15T05:43:11.839Z,27.17
2022-10-15T05:46:14.807Z,41.53
2022-10-15T05:49:19.214Z,34.42
2022-10-15T05:52:36.268Z,23.88
2022-10-15T05:55:46.940Z,17.98
2022-10-15T05:58:49.677Z,17.37
2022-10-15T06:01:51.916Z,18.42
2022-10-15T06:04:54.243Z,17.75
2022-10-15T06:07:56.789Z,15.88
2022-10-15T06:11:08.550Z,15.32
2022-10-15T06:14:11.854Z,16.27
2022-10-15T06:17:14.168Z,15.65
2022-10-15T06:20:17.667Z,16.20
2022-10-15T06:23:20.402Z,15.60
2022-10-15T06:26:23.190Z,16.17
2022-10-15T06:29:26.021Z,16.97
2022-10-15T06:32:30.135Z,14.82
2022-10-15T06:35:35.329Z,15.73
2022-10-15T06:38:39.494Z,14.30
2022-10-15T06:41:41.824Z,14.55
2022-10-15T06:44:44.133Z,15.07
2022-10-15T06:47:46.383Z,14.23
2022-10-15T06:50:48.910Z,15.15
2022-10-15T06:53:51.262Z,14.77
2022-10-15T06:56:53.493Z,14.93
2022-10-15T06:59:55.932Z,15.23
2022-10-15T07:03:03.946Z,13.77
2022-10-15T07:06:08.237Z,14.27
2022-10-15T07:09:10.543Z,14.05
2022-10-15T07:12:12.940Z,12.95
2022-10-15T07:15:15.573Z,13.20
2022-10-15T07:18:17.843Z,12.35
2022-10-15T07:21:20.093Z,12.43
2022-10-15T07:24:22.389Z,11.95
2022-10-15T07:27:24.800Z,13.15
2022-10-15T07:30:27.967Z,12.60
2022-10-15T07:33:30.816Z,12.88
2022-10-15T07:36:34.650Z,12.68
2022-10-15T07:39:40.692Z,12.25
2022-10-15T07:42:44.093Z,12.65
2022-10-15T07:45:50.154Z,12.73
2022-10-15T07:48:52.608Z,11.73
2022-10-15T07:51:54.856Z,12.77
2022-10-15T07:54:57.276Z,11.50
2022-10-15T07:57:59.728Z,11.75
2022-10-15T08:01:04.003Z,11.20
2022-10-15T08:04:06.266Z,11.02
2022-10-15T08:07:11.042Z,10.23
2022-10-15T08:10:13.728Z,10.07
2022-10-15T08:13:15.931Z,10.77
2022-10-15T08:16:20.320Z,10.90
2022-10-15T08:19:33.192Z,9.80
2022-10-15T08:22:35.469Z,8.50
2022-10-15T08:25:37.802Z,9.63
2022-10-15T08:28:40.289Z,9.65
2022-10-15T08:31:42.595Z,8.87
2022-10-15T08:34:44.858Z,8.68
2022-10-15T08:37:47.150Z,8.73
2022-10-15T08:40:50.424Z,8.77
2022-10-15T08:43:52.691Z,9.13
2022-10-15T08:47:03.396Z,9.23
2022-10-15T08:50:42.518Z,7.88
2022-10-15T08:53:49.699Z,7.60
2022-10-15T08:56:55.508Z,7.72
2022-10-15T09:00:03.959Z,7.88
2022-10-15T09:03:18.525Z,7.10
2022-10-15T09:06:30.340Z,9.07
2022-10-15T09:09:40.941Z,7.50
2022-10-15T09:12:58.858Z,8.05
2022-10-15T09:16:12.706Z,7.70
2022-10-15T09:19:21.515Z,7.23
2022-10-15T09:22:28.062Z,7.35
2022-10-15T09:25:36.373Z,7.28
2022-10-15T09:28:50.008Z,7.15
2022-10-15T09:32:05.913Z,7.22
2022-10-15T09:35:15.358Z,7.20
2022-10-15T09:38:29.808Z,6.65
2022-10-15T09:41:43.209Z,7.43
2022-10-15T09:44:47.017Z,7.38
2022-10-15T09:47:49.315Z,6.63
2022-10-15T09:50:59.006Z,6.83
2022-10-15T09:54:19.901Z,6.53
2022-10-15T09:57:25.508Z,6.60
2022-10-15T10:00:47.762Z,6.60
2022-10-15T10:03:55.434Z,6.07
2022-10-15T10:07:00.811Z,5.93
2022-10-15T10:10:06.179Z,6.35
2022-10-15T10:13:23.182Z,6.60
2022-10-15T10:16:26.504Z,5.43
2022-10-15T10:19:32.528Z,5.82
2022-10-15T10:22:51.353Z,5.90
2022-10-15T10:25:56.970Z,5.88
2022-10-15T10:29:05.087Z,6.50
2022-10-15T10:32:23.409Z,5.60
2022-10-15T10:35:29.602Z,5.03
2022-10-15T10:38:34.375Z,5.63
2022-10-15T10:41:49.838Z,5.03
2022-10-15T10:44:53.305Z,5.32
2022-10-15T10:47:55.627Z,5.70
2022-10-15T10:51:19.900Z,5.03
2022-10-15T10:54:29.209Z,4.33
2022-10-15T10:57:40.780Z,5.38
2022-10-15T11:00:48.657Z,4.72
2022-10-15T11:03:51.476Z,5.82
2022-10-15T11:07:12.559Z,5.05
2022-10-15T11:10:47.203Z,5.10
2022-10-15T11:14:08.746Z,5.30
2022-10-15T11:17:39.486Z,4.70
2022-10-15T11:21:07.303Z,4.03
2022-10-15T11:25:05.925Z,4.63
2022-10-15T11:28:25.774Z,4.13
2022-10-15T11:32:01.802Z,4.20
2022-10-15T11:35:41.026Z,4.13
2022-10-15T11:39:18.857Z,3.75
2022-10-15T11:42:37.692Z,4.35
2022-10-15T11:46:03.298Z,3.50
2022-10-15T11:49:23.917Z,3.92
2022-10-15T11:52:48.050Z,3.90
2022-10-15T11:55:54.585Z,3.83
2022-10-15T11:59:01.150Z,3.65
2022-10-15T12:02:15.691Z,3.27
2022-10-15T12:05:21.635Z,3.28
2022-10-15T12:08:30.583Z,3.00
2022-10-15T12:11:35.550Z,2.75
2022-10-15T12:14:51.257Z,3.10
2022-10-15T12:18:43.881Z,3.20
2022-10-15T12:21:55.146Z,3.17
2022-10-15T12:24:58.892Z,2.85
2022-10-15T12:28:12.597Z,3.08
2022-10-15T12:31:15.445Z,3.50
2022-10-15T12:34:39.936Z,3.33
2022-10-15T12:37:44.236Z,2.95
2022-10-15T12:40:47.229Z,3.10
2022-10-15T12:44:05.677Z,3.00
2022-10-15T12:47:10.594Z,3.55
2022-10-15T12:50:24.751Z,3.03
2022-10-15T12:53:29.850Z,3.05
2022-10-15T12:56:42.759Z,3.30
2022-10-15T12:59:45.322Z,3.10
2022-10-15T13:02:47.923Z,2.88
2022-10-15T13:05:54.222Z,2.90
2022-10-15T13:09:12.438Z,3.22
2022-10-15T13:12:27.472Z,3.38
2022-10-15T13:15:31.179Z,3.30
2022-10-15T13:18:33.676Z,3.50
2022-10-15T13:21:56.406Z,3.17
2022-10-15T13:25:00.658Z,3.25
2022-10-15T13:28:32.884Z,3.47
2022-10-15T13:31:40.626Z,3.28
2022-10-15T13:34:42.934Z,3.30
2022-10-15T13:37:47.003Z,3.67
2022-10-15T13:40:51.247Z,3.60
2022-10-15T13:43:58.597Z,3.20
2022-10-15T13:47:01.014Z,3.50
2022-10-15T13:50:24.586Z,3.58
2022-10-15T13:53:30.589Z,3.60
2022-10-15T13:56:33.064Z,3.47
2022-10-15T13:59:35.395Z,3.80
2022-10-15T14:02:38.089Z,3.60
2022-10-15T14:05:40.365Z,3.78
2022-10-15T14:08:42.728Z,3.67
2022-10-15T14:11:45.435Z,3.42
2022-10-15T14:14:48.193Z,3.33
2022-10-15T14:17:51.758Z,3.30
2022-10-15T14:20:54.384Z,3.30
2022-10-15T14:24:13.157Z,4.20
2022-10-15T14:27:18.066Z,5.60
2022-10-15T14:30:33.004Z,3.58
2022-10-15T14:33:38.362Z,3.75
2022-10-15T14:36:42.518Z,3.67
2022-10-15T14:39:47.982Z,3.53
2022-10-15T14:43:17.405Z,3.80
2022-10-15T14:46:20.021Z,4.00
2022-10-15T14:49:34.564Z,4.05
2022-10-15T14:52:37.425Z,4.80
2022-10-15T14:55:43.449Z,4.33
2022-10-15T14:58:52.492Z,6.55
2022-10-15T15:02:01.617Z,6.80
2022-10-15T15:05:11.418Z,6.40
2022-10-15T15:08:14.128Z,4.90
2022-10-15T15:11:24.555Z,4.80
2022-10-15T15:14:26.882Z,4.70
2022-10-15T15:17:30.867Z,3.90
2022-10-15T15:20:33.176Z,4.93
2022-10-15T15:23:35.549Z,5.20
2022-10-15T15:26:37.775Z,5.23
2022-10-15T15:29:40.137Z,4.90
2022-10-15T15:32:42.476Z,4.30
2022-10-15T15:35:51.566Z,4.63
2022-10-15T15:38:58.692Z,5.30
2022-10-15T15:42:00.958Z,4.80
2022-10-15T15:45:03.817Z,4.47
2022-10-15T15:48:08.155Z,4.95
2022-10-15T15:51:32.253Z,4.35
2022-10-15T15:54:34.823Z,5.25
2022-10-15T15:57:37.193Z,5.20
2022-10-15T16:00:39.577Z,5.22
2022-10-15T16:03:41.910Z,5.45
2022-10-15T16:06:44.365Z,6.10
2022-10-15T16:09:46.660Z,5.97
2022-10-15T16:12:48.964Z,5.57
2022-10-15T16:15:51.223Z,5.03
2022-10-15T16:18:53.549Z,5.43
2022-10-15T16:21:55.801Z,5.93
2022-10-15T16:24:58.039Z,7.40
2022-10-15T16:28:02.120Z,7.03
2022-10-15T16:31:18.470Z,6.30
2022-10-15T16:34:20.771Z,7.30
2022-10-15T16:37:23.412Z,5.72
2022-10-15T16:40:25.997Z,6.05
2022-10-15T16:43:28.286Z,6.03
2022-10-15T16:46:30.739Z,6.30
2022-10-15T16:49:33.060Z,6.50
2022-10-15T16:52:35.585Z,6.35
2022-10-15T16:55:37.903Z,6.72
2022-10-15T16:58:40.336Z,5.90
2022-10-15T17:01:42.720Z,5.57
2022-10-15T17:04:45.239Z,4.65
2022-10-15T17:07:47.615Z,4.93
2022-10-15T17:10:49.853Z,5.65
2022-10-15T17:13:53.847Z,5.37
2022-10-15T17:16:56.258Z,5.50
2022-10-15T17:19:58.624Z,5.57
2022-10-15T17:23:01.073Z,6.22
2022-10-15T17:26:12.638Z,5.68
2022-10-15T17:29:20.591Z,5.67
2022-10-15T17:32:23.477Z,5.60
2022-10-15T17:35:25.946Z,5.88
2022-10-15T17:38:28.321Z,5.50
2022-10-15T17:41:31.094Z,5.90
2022-10-15T17:44:33.309Z,5.83
2022-10-15T17:47:36.003Z,5.40
2022-10-15T17:50:44.463Z,6.30
2022-10-15T17:53:50.834Z,6.18
2022-10-15T17:56:53.170Z,6.95
2022-10-15T17:59:55.561Z,6.23
2022-10-15T18:02:57.992Z,6.38
2022-10-15T18:06:13.303Z,7.20
2022-10-15T18:09:15.543Z,6.90
2022-10-15T18:12:17.780Z,6.90
2022-10-15T18:15:20.030Z,6.97
2022-10-15T18:18:22.335Z,7.25
2022-10-15T18:21:25.317Z,6.38
2022-10-15T18:24:27.605Z,7.07
2022-10-15T18:27:29.860Z,7.25
2022-10-15T18:30:32.148Z,7.20
2022-10-15T18:33:39.875Z,7.05
2022-10-15T18:36:43.823Z,6.90
2022-10-15T18:39:46.209Z,6.72
2022-10-15T18:42:48.729Z,7.03
2022-10-15T18:45:55.598Z,6.90
2022-10-15T18:48:58.478Z,6.43
2022-10-15T18:52:10.646Z,6.70
2022-10-15T18:55:23.841Z,6.30
2022-10-15T18:58:26.122Z,6.40
2022-10-15T19:01:36.542Z,6.70
2022-10-15T19:04:39.118Z,6.88
2022-10-15T19:07:42.030Z,6.95
2022-10-15T19:10:44.307Z,7.57
2022-10-15T19:13:46.610Z,6.40
2022-10-15T19:16:49.478Z,6.93
2022-10-15T19:19:51.695Z,6.57
2022-10-15T19:22:53.917Z,7.38
2022-10-15T19:25:57.898Z,6.70
2022-10-15T19:29:00.278Z,7.00
2022-10-15T19:32:03.817Z,6.50
2022-10-15T19:35:06.499Z,6.97
2022-10-15T19:38:08.806Z,6.57
2022-10-15T19:41:11.061Z,7.05
2022-10-15T19:44:16.023Z,8.18
2022-10-15T19:47:20.605Z,7.13
2022-10-15T19:50:22.880Z,7.35
2022-10-15T19:53:25.733Z,7.38
2022-10-15T19:56:28.334Z,8.18
2022-10-15T19:59:30.613Z,7.75
2022-10-15T20:02:32.907Z,7.17
2022-10-15T20:05:35.177Z,8.40
2022-10-15T20:08:37.588Z,9.13
2022-10-15T20:11:39.881Z,9.27
2022-10-15T20:14:42.224Z,9.57
2022-10-15T20:17:44.535Z,8.77
2022-10-15T20:20:47.288Z,8.60
2022-10-15T20:23:49.562Z,7.55
2022-10-15T20:26:51.851Z,6.35
2022-10-15T20:29:54.079Z,6.50
2022-10-15T20:32:56.326Z,6.63
2022-10-15T20:36:03.955Z,7.18
2022-10-15T20:39:06.249Z,6.95
2022-10-15T20:42:08.523Z,6.80
2022-10-15T20:45:14.658Z,6.55
2022-10-15T20:48:19.879Z,7.80
2022-10-15T20:51:25.982Z,7.47
2022-10-15T20:54:30.989Z,6.93
2022-10-15T20:57:33.277Z,7.25
2022-10-15T21:00:35.542Z,7.32
2022-10-15T21:03:37.852Z,7.07
2022-10-15T21:06:40.301Z,7.90
2022-10-15T21:09:42.596Z,6.75
2022-10-15T21:12:44.841Z,7.25
2022-10-15T21:15:47.197Z,6.88
2022-10-15T21:18:49.484Z,6.30
2022-10-15T21:21:51.730Z,6.30
2022-10-15T21:24:54.003Z,6.03
2022-10-15T21:27:56.933Z,6.20
2022-10-15T21:30:59.861Z,5.50
2022-10-15T21:34:02.089Z,6.03
2022-10-15T21:37:04.366Z,5.43
2022-10-15T21:40:07.724Z,5.63
2022-10-15T21:43:10.075Z,6.00
2022-10-15T21:46:14.145Z,5.85
2022-10-15T21:49:16.552Z,5.40
2022-10-15T21:52:18.864Z,5.70
2022-10-15T21:55:21.290Z,5.35
2022-10-15T21:58:23.568Z,6.30
2022-10-15T22:01:28.328Z,6.00
2022-10-15T22:04:33.766Z,5.73
2022-10-15T22:07:38.433Z,5.60
2022-10-15T22:10:42.611Z,5.28
2022-10-15T22:13:46.521Z,5.50
2022-10-15T22:16:48.841Z,5.43
2022-10-15T22:19:51.107Z,5.17
2022-10-15T22:22:54.329Z,5.15
2022-10-15T22:25:59.867Z,5.80
2022-10-15T22:29:03.467Z,5.10
2022-10-15T22:32:05.857Z,5.25
2022-10-15T22:35:08.458Z,4.70
2022-10-15T22:38:10.724Z,5.47
2022-10-15T22:41:13.845Z,5.18
2022-10-15T22:44:19.034Z,5.53
2022-10-15T22:47:21.329Z,5.07
2022-10-15T22:50:23.607Z,4.97
2022-10-15T22:53:26.053Z,4.93
2022-10-15T22:56:28.916Z,5.18
2022-10-15T22:59:31.509Z,4.93
2022-10-15T23:02:33.829Z,5.00
2022-10-15T23:05:36.074Z,4.60
2022-10-15T23:08:38.745Z,4.78
2022-10-15T23:11:41.108Z,5.15
2022-10-15T23:14:43.379Z,4.97
2022-10-15T23:17:45.738Z,4.90
2022-10-15T23:20:47.957Z,4.70
2022-10-15T23:23:51.638Z,4.70
2022-10-15T23:26:53.975Z,5.07
2022-10-15T23:30:07.420Z,4.90
2022-10-15T23:33:18.537Z,5.28
2022-10-15T23:36:22.251Z,5.50
2022-10-15T23:39:26.270Z,4.90
2022-10-15T23:42:28.872Z,4.60
2022-10-15T23:45:31.129Z,4.85
2022-10-15T23:48:34.009Z,4.97
2022-10-15T23:51:36.543Z,4.57
2022-10-15T23:54:39.176Z,5.18
2022-10-15T23:57:41.563Z,5.00
